Time;durP1;ratioP1;P1;durP2;ratioP2;P2;SDS_P1;SDS_P2;PMS_P1;PMS_P2;Temp;Humidity;BMP_temperature;BMP_pressure;BME280_temperature;BME280_humidity;BME280_pressure;Samples;Min_cycle;Max_cycle;Signal;HPM_P1;HPM_P2
2024/01/01 00:00:08;;;;;;;8.30;3.63;;;;;;;;;;5050978;28;20272;-83
2024/01/01 00:02:35;;;;;;;3.93;3.50;;;;;;;;;;5051500;28;20214;-83
2024/01/01 00:05:02;;;;;;;9.57;6.20;;;;;;;;;;5051528;28;20210;-83
2024/01/01 00:07:29;;;;;;;6.50;5.10;;;;;;;;;;5050975;28;20233;-83
2024/01/01 00:09:56;;;;;;;9.27;6.60;;;;;;;;;;5051360;28;20233;-84
2024/01/01 00:12:25;;;;;;;9.60;6.23;;;;;;;;;;5050757;28;20715;-83
2024/01/01 00:14:52;;;;;;;10.07;7.23;;;;;;;;;;5051155;28;20221;-83
2024/01/01 00:17:19;;;;;;;9.17;6.53;;;;;;;;;;5050815;28;20261;-83
2024/01/01 00:19:46;;;;;;;6.60;4.87;;;;;;;;;;5051254;28;20264;-83
2024/01/01 00:22:13;;;;;;;12.00;7.87;;;;;;;;;;5050916;28;20245;-83
2024/01/01 00:24:40;;;;;;;13.30;9.00;;;;;;;;;;5051079;28;20212;-83
2024/01/01 00:27:07;;;;;;;12.60;8.83;;;;;;;;;;5051001;28;20244;-83
2024/01/01 00:29:35;;;;;;;11.17;8.20;;;;;;;;;;5051320;28;20829;-83
2024/01/01 00:32:02;;;;;;;19.60;10.63;;;;;;;;;;5050782;28;20237;-83
2024/01/01 00:34:29;;;;;;;13.30;9.73;;;;;;;;;;5051229;28;20256;-84
2024/01/01 00:36:56;;;;;;;7.97;6.47;;;;;;;;;;5053593;28;20586;-84
2024/01/01 00:39:23;;;;;;;19.97;11.73;;;;;;;;;;5055183;28;20242;-83
2024/01/01 00:41:50;;;;;;;19.37;10.77;;;;;;;;;;5054603;28;20607;-83
2024/01/01 00:44:17;;;;;;;18.37;11.53;;;;;;;;;;5054957;28;20255;-83
2024/01/01 00:46:46;;;;;;;14.67;7.20;;;;;;;;;;5054442;28;20234;-83
2024/01/01 00:49:13;;;;;;;9.80;5.90;;;;;;;;;;5055091;28;20248;-83
2024/01/01 00:51:40;;;;;;;14.90;9.20;;;;;;;;;;5049496;28;20230;-83
2024/01/01 00:54:07;;;;;;;17.63;10.23;;;;;;;;;;5034720;28;20210;-83
2024/01/01 00:56:34;;;;;;;14.30;10.10;;;;;;;;;;5034414;28;20242;-83
2024/01/01 00:59:01;;;;;;;9.13;6.30;;;;;;;;;;5034754;28;20233;-83
2024/01/01 01:01:28;;;;;;;12.80;7.03;;;;;;;;;;5034215;28;20242;-83
2024/01/01 01:03:56;;;;;;;11.23;6.93;;;;;;;;;;5044164;28;20225;-83
2024/01/01 01:06:23;;;;;;;13.07;9.63;;;;;;;;;;5054350;28;20237;-83
2024/01/01 01:08:51;;;;;;;4.50;4.10;;;;;;;;;;5054405;28;20232;-83
2024/01/01 01:11:18;;;;;;;14.50;7.70;;;;;;;;;;5054148;28;20256;-83
2024/01/01 01:13:45;;;;;;;12.33;8.40;;;;;;;;;;5054304;28;20221;-83
2024/01/01 01:16:12;;;;;;;10.30;7.33;;;;;;;;;;5053856;28;20260;-83
2024/01/01 01:18:39;;;;;;;11.20;6.83;;;;;;;;;;5054112;28;20221;-83
2024/01/01 01:21:08;;;;;;;8.10;6.60;;;;;;;;;;5053893;28;20291;-84
2024/01/01 01:23:35;;;;;;;11.03;6.50;;;;;;;;;;5054049;28;20218;-83
2024/01/01 01:26:02;;;;;;;9.60;6.93;;;;;;;;;;5053501;28;20295;-83
2024/01/01 01:28:29;;;;;;;11.43;6.83;;;;;;;;;;5054170;28;20206;-83
2024/01/01 01:30:56;;;;;;;14.00;8.30;;;;;;;;;;5053461;28;20727;-83
2024/01/01 01:33:23;;;;;;;5.67;4.67;;;;;;;;;;5041903;28;20207;-83
2024/01/01 01:35:50;;;;;;;8.73;5.17;;;;;;;;;;5033488;28;20268;-83
2024/01/01 01:38:18;;;;;;;4.10;3.27;;;;;;;;;;5050678;28;20369;-84
2024/01/01 01:40:45;;;;;;;9.77;5.77;;;;;;;;;;5033434;28;20956;-84
2024/01/01 01:43:20;;;;;;;8.07;5.93;;;;;;;;;;5048121;28;20241;-83
2024/01/01 01:45:47;;;;;;;6.77;4.57;;;;;;;;;;5053629;28;20316;-83
2024/01/01 01:48:14;;;;;;;10.13;5.57;;;;;;;;;;5053388;28;20217;-83
2024/01/01 01:50:41;;;;;;;5.27;4.27;;;;;;;;;;5035359;28;20240;-83
2024/01/01 01:53:08;;;;;;;11.47;6.57;;;;;;;;;;5036609;28;20209;-83
2024/01/01 01:55:37;;;;;;;9.87;5.70;;;;;;;;;;5045619;28;20233;-83
2024/01/01 01:58:04;;;;;;;10.50;4.90;;;;;;;;;;5040671;28;20214;-83
2024/01/01 02:00:31;;;;;;;6.80;5.33;;;;;;;;;;5046830;28;20242;-83
2024/01/01 02:02:59;;;;;;;8.13;4.80;;;;;;;;;;5053330;28;20225;-83
2024/01/01 02:05:26;;;;;;;4.80;3.83;;;;;;;;;;5053067;28;20241;-83
2024/01/01 02:07:53;;;;;;;7.57;4.97;;;;;;;;;;5052325;28;20233;-83
2024/01/01 02:10:20;;;;;;;8.57;5.37;;;;;;;;;;5066113;28;20232;-83
2024/01/01 02:12:48;;;;;;;4.87;3.33;;;;;;;;;;5074032;28;20209;-83
2024/01/01 02:15:15;;;;;;;6.97;4.03;;;;;;;;;;5057919;28;20236;-83
2024/01/01 02:17:42;;;;;;;7.07;4.17;;;;;;;;;;5053492;28;20213;-83
2024/01/01 02:20:10;;;;;;;11.03;4.70;;;;;;;;;;5038653;28;20223;-83
2024/01/01 02:22:39;;;;;;;10.37;4.60;;;;;;;;;;5045569;28;20276;-83
2024/01/01 02:25:08;;;;;;;5.60;4.10;;;;;;;;;;5052848;28;20281;-83
2024/01/01 02:27:37;;;;;;;7.60;4.33;;;;;;;;;;5051038;28;20241;-83
2024/01/01 02:30:05;;;;;;;3.13;2.90;;;;;;;;;;5034983;28;20226;-83
2024/01/01 02:32:32;;;;;;;6.00;4.13;;;;;;;;;;5053574;28;20202;-83
2024/01/01 02:34:59;;;;;;;4.70;3.60;;;;;;;;;;5051696;28;20210;-83
2024/01/01 02:37:26;;;;;;;5.83;3.70;;;;;;;;;;5044889;28;20288;-82
2024/01/01 02:39:53;;;;;;;4.33;3.03;;;;;;;;;;5043036;28;20234;-84
2024/01/01 02:42:22;;;;;;;6.50;3.87;;;;;;;;;;5051814;28;20237;-84
2024/01/01 02:44:49;;;;;;;4.37;3.27;;;;;;;;;;5036357;28;20282;-83
2024/01/01 02:47:16;;;;;;;2.30;2.10;;;;;;;;;;5052293;28;20301;-82
2024/01/01 02:49:43;;;;;;;9.30;2.87;;;;;;;;;;5043077;28;20230;-82
2024/01/01 02:52:10;;;;;;;4.30;3.53;;;;;;;;;;5045937;28;20253;-82
2024/01/01 02:54:37;;;;;;;3.10;2.80;;;;;;;;;;5052324;28;20332;-82
2024/01/01 02:57:04;;;;;;;6.13;3.20;;;;;;;;;;5040076;28;20241;-82
2024/01/01 02:59:33;;;;;;;8.20;3.60;;;;;;;;;;5031555;28;20233;-81
2024/01/01 03:02:00;;;;;;;10.33;3.60;;;;;;;;;;5031995;28;20316;-81
2024/01/01 03:04:28;;;;;;;4.47;3.13;;;;;;;;;;5032300;28;20227;-82
2024/01/01 03:06:55;;;;;;;3.50;2.93;;;;;;;;;;5031963;28;20605;-81
2024/01/01 03:09:22;;;;;;;4.90;3.63;;;;;;;;;;5035714;28;20219;-82
2024/01/01 03:11:48;;;;;;;7.23;3.23;;;;;;;;;;5031877;28;20866;-82
2024/01/01 03:14:15;;;;;;;4.37;2.97;;;;;;;;;;5032412;28;20222;-82
2024/01/01 03:16:43;;;;;;;3.93;2.97;;;;;;;;;;5031902;28;20243;-82
2024/01/01 03:19:10;;;;;;;3.80;2.90;;;;;;;;;;5048122;28;20709;-82
2024/01/01 03:21:37;;;;;;;3.50;2.80;;;;;;;;;;5040646;28;20238;-82
2024/01/01 03:24:05;;;;;;;2.80;2.53;;;;;;;;;;5050309;28;20647;-82
2024/01/01 03:26:32;;;;;;;2.47;2.27;;;;;;;;;;5051403;28;20716;-82
2024/01/01 03:28:59;;;;;;;5.13;2.30;;;;;;;;;;5045598;28;20317;-82
2024/01/01 03:31:26;;;;;;;2.77;2.27;;;;;;;;;;5036419;28;20830;-82
2024/01/01 03:33:54;;;;;;;3.13;2.80;;;;;;;;;;5051657;28;20240;-82
2024/01/01 03:36:21;;;;;;;4.20;2.90;;;;;;;;;;5047612;28;20643;-82
2024/01/01 03:38:48;;;;;;;2.77;2.40;;;;;;;;;;5051882;28;20206;-83
2024/01/01 03:41:15;;;;;;;3.67;3.07;;;;;;;;;;5042693;28;20716;-83
2024/01/01 03:43:42;;;;;;;3.13;2.80;;;;;;;;;;5037751;28;20634;-82
2024/01/01 03:46:09;;;;;;;5.07;2.83;;;;;;;;;;5032554;28;20238;-83
2024/01/01 03:48:36;;;;;;;6.33;3.87;;;;;;;;;;5038205;28;20569;-83
2024/01/01 03:51:05;;;;;;;4.27;3.23;;;;;;;;;;5051218;28;20279;-82
2024/01/01 03:53:32;;;;;;;3.73;3.27;;;;;;;;;;5051756;28;20228;-83
2024/01/01 03:55:59;;;;;;;7.63;2.93;;;;;;;;;;5051025;28;20242;-82
2024/01/01 03:58:26;;;;;;;5.70;3.40;;;;;;;;;;5051816;28;20212;-83
2024/01/01 04:00:53;;;;;;;5.90;3.70;;;;;;;;;;5046824;28;20234;-83
2024/01/01 04:03:20;;;;;;;6.33;3.80;;;;;;;;;;5038533;28;20226;-83
2024/01/01 04:05:47;;;;;;;8.63;3.50;;;;;;;;;;5051063;28;20237;-82
2024/01/01 04:08:16;;;;;;;4.63;2.60;;;;;;;;;;5051453;28;20275;-82
2024/01/01 04:10:43;;;;;;;4.07;3.30;;;;;;;;;;5051089;28;20292;-83
2024/01/01 04:13:10;;;;;;;3.47;2.40;;;;;;;;;;5051414;28;20198;-83
2024/01/01 04:15:37;;;;;;;3.10;2.70;;;;;;;;;;5050827;28;20263;-83
2024/01/01 04:18:04;;;;;;;2.30;2.20;;;;;;;;;;5034757;28;20688;-83
2024/01/01 04:20:31;;;;;;;9.00;2.77;;;;;;;;;;5030907;28;20246;-83
2024/01/01 04:22:58;;;;;;;2.43;2.17;;;;;;;;;;5031489;28;20235;-83
2024/01/01 04:25:28;;;;;;;6.10;2.90;;;;;;;;;;5030752;28;20256;-83
2024/01/01 04:27:55;;;;;;;4.27;3.33;;;;;;;;;;5039139;28;20703;-83
2024/01/01 04:30:22;;;;;;;2.33;2.10;;;;;;;;;;5051137;28;20226;-83
2024/01/01 04:32:49;;;;;;;3.80;2.47;;;;;;;;;;5051456;28;20264;-84
2024/01/01 04:35:16;;;;;;;10.57;3.40;;;;;;;;;;5030689;28;20265;-83
2024/01/01 04:37:43;;;;;;;11.27;3.33;;;;;;;;;;5037105;28;20267;-83
2024/01/01 04:40:10;;;;;;;4.60;2.90;;;;;;;;;;5047749;28;20226;-83
2024/01/01 04:42:38;;;;;;;4.57;3.40;;;;;;;;;;5031262;28;20211;-84
2024/01/01 04:45:05;;;;;;;2.80;2.50;;;;;;;;;;5030606;28;20253;-84
2024/01/01 04:47:32;;;;;;;3.73;3.27;;;;;;;;;;5032883;28;20214;-84
2024/01/01 04:49:59;;;;;;;5.33;2.83;;;;;;;;;;5051482;28;20260;-84
2024/01/01 04:52:26;;;;;;;4.37;2.77;;;;;;;;;;5050684;28;20303;-83
2024/01/01 04:54:55;;;;;;;3.53;2.53;;;;;;;;;;5050922;28;20256;-84
2024/01/01 04:57:22;;;;;;;3.80;2.87;;;;;;;;;;5050773;28;20756;-84
2024/01/01 04:59:50;;;;;;;2.67;2.47;;;;;;;;;;5031570;28;20223;-84
2024/01/01 05:02:17;;;;;;;3.50;2.53;;;;;;;;;;5045462;28;20240;-84
2024/01/01 05:04:44;;;;;;;2.20;1.93;;;;;;;;;;5051062;28;20237;-84
2024/01/01 05:07:11;;;;;;;3.30;2.23;;;;;;;;;;5050214;28;20237;-84
2024/01/01 05:09:38;;;;;;;4.57;3.13;;;;;;;;;;5051140;28;20222;-84
2024/01/01 05:12:06;;;;;;;2.97;2.10;;;;;;;;;;5037152;28;20245;-84
2024/01/01 05:14:33;;;;;;;7.13;2.97;;;;;;;;;;5041757;28;20206;-84
2024/01/01 05:17:01;;;;;;;6.30;2.27;;;;;;;;;;5035737;28;20705;-84
2024/01/01 05:19:28;;;;;;;1.90;1.80;;;;;;;;;;5031138;28;20317;-84
2024/01/01 05:21:55;;;;;;;1.70;1.60;;;;;;;;;;5031664;28;20234;-85
2024/01/01 05:24:22;;;;;;;3.67;2.27;;;;;;;;;;5036450;28;20571;-86
2024/01/01 05:26:49;;;;;;;5.23;2.20;;;;;;;;;;5034121;28;20241;-84
2024/01/01 05:29:16;;;;;;;1.57;1.57;;;;;;;;;;5034690;28;20226;-84
2024/01/01 05:31:43;;;;;;;2.43;2.23;;;;;;;;;;5033875;28;20234;-84
2024/01/01 05:34:12;;;;;;;1.70;1.60;;;;;;;;;;5034117;28;20206;-85
2024/01/01 05:36:39;;;;;;;2.50;2.30;;;;;;;;;;5035268;28;20727;-84
2024/01/01 05:39:06;;;;;;;2.00;1.90;;;;;;;;;;5040460;28;20218;-86
2024/01/01 05:41:33;;;;;;;2.20;2.00;;;;;;;;;;5053805;28;20237;-84
2024/01/01 05:44:01;;;;;;;4.40;2.10;;;;;;;;;;5053931;28;20629;-84
2024/01/01 05:46:28;;;;;;;1.90;1.80;;;;;;;;;;5044471;28;20226;-84
2024/01/01 05:48:55;;;;;;;2.47;2.07;;;;;;;;;;5037827;28;20207;-84
2024/01/01 05:51:23;;;;;;;1.70;1.60;;;;;;;;;;5053616;28;20284;-84
2024/01/01 05:53:57;;;;;;;2.17;2.07;;;;;;;;;;5039259;28;20195;-84
2024/01/01 05:56:24;;;;;;;2.30;1.80;;;;;;;;;;5033475;28;20261;-84
2024/01/01 05:58:51;;;;;;;2.80;2.00;;;;;;;;;;5033597;28;20218;-84
2024/01/01 06:01:18;;;;;;;1.83;1.73;;;;;;;;;;5033356;28;20238;-84
2024/01/01 06:03:46;;;;;;;1.93;1.77;;;;;;;;;;5037642;28;20210;-85
2024/01/01 06:06:13;;;;;;;2.80;1.90;;;;;;;;;;5053144;28;20238;-84
2024/01/01 06:08:41;;;;;;;2.97;1.50;;;;;;;;;;5053551;28;20198;-85
2024/01/01 06:11:08;;;;;;;1.60;1.50;;;;;;;;;;5052002;28;20226;-82
2024/01/01 06:13:35;;;;;;;1.60;1.50;;;;;;;;;;5033543;28;20207;-81
2024/01/01 06:16:03;;;;;;;1.73;1.63;;;;;;;;;;5032798;28;20706;-81
2024/01/01 06:18:31;;;;;;;2.00;1.80;;;;;;;;;;5042121;28;20264;-81
2024/01/01 06:20:57;;;;;;;7.87;2.13;;;;;;;;;;5043775;28;20628;-81
2024/01/01 06:23:25;;;;;;;3.13;2.00;;;;;;;;;;5052927;28;20217;-81
2024/01/01 06:25:53;;;;;;;5.50;2.03;;;;;;;;;;5042852;28;20245;-81
2024/01/01 06:28:21;;;;;;;2.53;1.63;;;;;;;;;;5053206;28;20217;-81
2024/01/01 06:30:48;;;;;;;4.37;2.10;;;;;;;;;;5049515;28;20257;-81
2024/01/01 06:33:15;;;;;;;4.60;2.13;;;;;;;;;;5051621;28;20202;-81
2024/01/01 06:35:42;;;;;;;3.83;1.90;;;;;;;;;;5045525;28;20779;-81
2024/01/01 06:38:09;;;;;;;5.37;2.40;;;;;;;;;;5038486;28;20199;-81
2024/01/01 06:40:36;;;;;;;2.47;1.83;;;;;;;;;;5046439;28;20241;-81
2024/01/01 06:43:04;;;;;;;4.53;2.53;;;;;;;;;;5052573;28;20221;-81
2024/01/01 06:45:31;;;;;;;5.33;1.90;;;;;;;;;;5039264;28;20242;-81
2024/01/01 06:47:58;;;;;;;1.60;1.50;;;;;;;;;;5035723;28;20210;-81
2024/01/01 06:50:25;;;;;;;4.23;2.10;;;;;;;;;;5052166;28;20241;-81
2024/01/01 06:52:52;;;;;;;6.60;2.10;;;;;;;;;;5038644;28;20207;-81
2024/01/01 06:55:22;;;;;;;6.83;2.03;;;;;;;;;;5031977;28;20294;-81
2024/01/01 06:57:49;;;;;;;9.03;2.37;;;;;;;;;;5035805;28;20221;-81
2024/01/01 07:00:18;;;;;;;3.93;2.00;;;;;;;;;;5047842;28;20754;-81
2024/01/01 07:02:45;;;;;;;3.73;2.03;;;;;;;;;;5032575;28;20210;-80
2024/01/01 07:05:12;;;;;;;4.90;2.50;;;;;;;;;;5031714;28;20234;-80
2024/01/01 07:07:39;;;;;;;4.37;2.10;;;;;;;;;;5045902;28;20218;-79
2024/01/01 07:10:07;;;;;;;8.27;2.37;;;;;;;;;;5041803;28;20285;-79
2024/01/01 07:12:34;;;;;;;4.40;2.03;;;;;;;;;;5048257;28;20260;-80
2024/01/01 07:15:02;;;;;;;10.67;2.60;;;;;;;;;;5032148;28;20649;-80
2024/01/01 07:17:30;;;;;;;6.90;2.47;;;;;;;;;;5031954;28;20246;-80
2024/01/01 07:19:58;;;;;;;2.97;2.30;;;;;;;;;;5050140;28;20719;-80
2024/01/01 07:22:25;;;;;;;2.30;2.03;;;;;;;;;;5040654;28;20257;-81
2024/01/01 07:24:52;;;;;;;2.00;1.67;;;;;;;;;;5040058;28;20639;-80
2024/01/01 07:27:19;;;;;;;7.70;2.20;;;;;;;;;;5031550;28;20230;-80
2024/01/01 07:29:46;;;;;;;2.60;2.40;;;;;;;;;;5031978;28;20770;-80
2024/01/01 07:32:13;;;;;;;1.93;1.83;;;;;;;;;;5040173;28;20599;-80
2024/01/01 07:34:42;;;;;;;6.10;2.20;;;;;;;;;;5051067;28;20260;-80
2024/01/01 07:37:09;;;;;;;4.80;1.77;;;;;;;;;;5037498;28;20249;-80
2024/01/01 07:39:36;;;;;;;6.10;1.83;;;;;;;;;;5032079;28;20223;-80
2024/01/01 07:42:03;;;;;;;7.33;2.13;;;;;;;;;;5040492;28;20230;-80
2024/01/01 07:44:30;;;;;;;6.37;2.27;;;;;;;;;;5031305;28;20234;-80
2024/01/01 07:46:57;;;;;;;2.80;2.50;;;;;;;;;;5031407;28;20238;-80
2024/01/01 07:49:24;;;;;;;1.70;1.60;;;;;;;;;;5047260;28;20268;-81
2024/01/01 07:51:53;;;;;;;8.07;2.67;;;;;;;;;;5045486;28;20231;-81
2024/01/01 07:54:20;;;;;;;4.00;2.30;;;;;;;;;;5041272;28;20194;-81
2024/01/01 07:56:49;;;;;;;2.70;2.00;;;;;;;;;;5037516;28;20246;-81
2024/01/01 07:59:16;;;;;;;4.50;2.37;;;;;;;;;;5036412;28;20257;-81
2024/01/01 08:01:43;;;;;;;3.37;2.33;;;;;;;;;;5047894;28;20237;-80
2024/01/01 08:04:10;;;;;;;4.63;2.50;;;;;;;;;;5051309;28;20226;-81
2024/01/01 08:06:37;;;;;;;2.63;1.87;;;;;;;;;;5039340;28;20234;-81
2024/01/01 08:09:05;;;;;;;5.63;2.73;;;;;;;;;;5031736;28;20255;-78
2024/01/01 08:11:32;;;;;;;4.87;2.40;;;;;;;;;;5048025;28;20236;-77
2024/01/01 08:13:59;;;;;;;4.93;2.40;;;;;;;;;;5053072;28;20615;-78
2024/01/01 08:16:27;;;;;;;9.50;3.03;;;;;;;;;;5037036;28;20235;-78
2024/01/01 08:18:54;;;;;;;2.30;1.83;;;;;;;;;;5031519;28;20205;-79
2024/01/01 08:21:21;;;;;;;4.20;2.07;;;;;;;;;;5044785;28;20234;-79
2024/01/01 08:23:49;;;;;;;3.60;1.87;;;;;;;;;;5049760;28;20294;-79
2024/01/01 08:26:17;;;;;;;9.53;2.00;;;;;;;;;;5031682;28;20234;-80
2024/01/01 08:28:51;;;;;;;5.87;3.30;;;;;;;;;;5034716;28;20218;-81
2024/01/01 08:31:18;;;;;;;4.03;2.07;;;;;;;;;;5049394;28;20230;-80
2024/01/01 08:33:45;;;;;;;3.27;2.13;;;;;;;;;;5049299;28;20205;-81
2024/01/01 08:36:12;;;;;;;2.93;1.87;;;;;;;;;;5050531;28;20233;-81
2024/01/01 08:38:39;;;;;;;4.70;2.27;;;;;;;;;;5045316;28;20206;-81
2024/01/01 08:41:06;;;;;;;11.23;2.83;;;;;;;;;;5032131;28;20245;-81
2024/01/01 08:43:34;;;;;;;4.57;1.97;;;;;;;;;;5031084;28;20562;-80
2024/01/01 08:46:01;;;;;;;6.17;1.93;;;;;;;;;;5030586;28;20245;-80
2024/01/01 08:48:28;;;;;;;5.33;1.80;;;;;;;;;;5031083;28;20206;-81
2024/01/01 08:50:55;;;;;;;3.60;2.00;;;;;;;;;;5032143;28;20226;-81
2024/01/01 08:53:22;;;;;;;4.70;2.30;;;;;;;;;;5047481;28;20210;-81
2024/01/01 08:55:49;;;;;;;4.80;2.07;;;;;;;;;;5050433;28;20241;-81
2024/01/01 08:58:16;;;;;;;4.77;2.13;;;;;;;;;;5054280;28;20252;-81
2024/01/01 09:00:45;;;;;;;3.50;2.37;;;;;;;;;;5054344;28;20304;-81
2024/01/01 09:03:12;;;;;;;5.40;2.10;;;;;;;;;;5054882;28;20228;-81
2024/01/01 09:05:39;;;;;;;6.20;2.67;;;;;;;;;;5053917;28;20241;-82
2024/01/01 09:08:07;;;;;;;4.67;2.30;;;;;;;;;;5054601;28;20216;-81
2024/01/01 09:10:33;;;;;;;3.50;1.97;;;;;;;;;;5040995;28;20388;-80
2024/01/01 09:13:00;;;;;;;3.87;1.90;;;;;;;;;;5040554;28;20688;-81
2024/01/01 09:15:28;;;;;;;5.70;4.00;;;;;;;;;;5053831;28;20229;-81
2024/01/01 09:17:56;;;;;;;6.57;2.40;;;;;;;;;;5054610;28;20210;-81
2024/01/01 09:20:23;;;;;;;4.60;2.77;;;;;;;;;;5053816;28;20267;-82
2024/01/01 09:22:51;;;;;;;7.43;1.90;;;;;;;;;;5054410;28;20217;-79
2024/01/01 09:25:19;;;;;;;2.00;1.87;;;;;;;;;;5053679;28;20321;-80
2024/01/01 09:27:47;;;;;;;2.30;1.63;;;;;;;;;;5054206;28;20296;-80
2024/01/01 09:30:14;;;;;;;4.27;2.30;;;;;;;;;;5048599;28;20295;-81
2024/01/01 09:32:41;;;;;;;1.43;1.43;;;;;;;;;;5054129;28;20214;-80
2024/01/01 09:35:10;;;;;;;5.90;3.00;;;;;;;;;;5053589;28;20210;-80
2024/01/01 09:37:37;;;;;;;3.50;2.50;;;;;;;;;;5053834;28;20676;-80
2024/01/01 09:40:05;;;;;;;2.37;2.17;;;;;;;;;;5053448;28;20222;-81
2024/01/01 09:42:32;;;;;;;4.97;2.13;;;;;;;;;;5053990;28;20645;-81
2024/01/01 09:44:59;;;;;;;2.87;2.17;;;;;;;;;;5053602;28;20276;-81
2024/01/01 09:47:26;;;;;;;3.30;2.57;;;;;;;;;;5053445;28;20287;-81
2024/01/01 09:49:53;;;;;;;3.73;2.23;;;;;;;;;;5053697;28;20668;-81
2024/01/01 09:52:21;;;;;;;2.83;1.90;;;;;;;;;;5053350;28;20233;-81
2024/01/01 09:54:48;;;;;;;9.73;2.37;;;;;;;;;;5053623;28;20202;-81
2024/01/01 09:57:15;;;;;;;5.30;2.60;;;;;;;;;;5046893;28;20309;-81
2024/01/01 09:59:42;;;;;;;4.30;2.73;;;;;;;;;;5040034;28;20304;-80
2024/01/01 10:02:10;;;;;;;6.20;2.33;;;;;;;;;;5041781;28;20601;-82
2024/01/01 10:04:37;;;;;;;5.13;2.17;;;;;;;;;;5044812;28;20198;-80
2024/01/01 10:07:04;;;;;;;6.63;2.43;;;;;;;;;;5044461;28;20231;-81
2024/01/01 10:09:33;;;;;;;7.70;3.57;;;;;;;;;;5044766;28;21657;-80
2024/01/01 10:12:07;;;;;;;5.97;2.23;;;;;;;;;;5046571;28;20253;-80
2024/01/01 10:14:34;;;;;;;3.53;2.10;;;;;;;;;;5043770;28;20560;-81
2024/01/01 10:17:12;;;;;;;9.73;2.87;;;;;;;;;;5038196;28;20226;-81
2024/01/01 10:19:47;;;;;;;2.10;1.90;;;;;;;;;;5033379;28;20317;-79
2024/01/01 10:22:14;;;;;;;5.00;2.20;;;;;;;;;;5033328;28;20225;-79
2024/01/01 10:24:42;;;;;;;5.00;1.67;;;;;;;;;;5050964;28;20210;-80
2024/01/01 10:27:10;;;;;;;4.07;2.10;;;;;;;;;;5052567;28;20606;-80
2024/01/01 10:29:37;;;;;;;2.73;2.10;;;;;;;;;;5047710;28;20799;-81
2024/01/01 10:32:05;;;;;;;5.87;1.77;;;;;;;;;;5052398;28;20234;-80
2024/01/01 10:34:33;;;;;;;3.20;2.20;;;;;;;;;;5052764;28;20639;-81
2024/01/01 10:37:00;;;;;;;3.30;2.27;;;;;;;;;;5052362;28;20295;-81
2024/01/01 10:39:29;;;;;;;7.07;2.70;;;;;;;;;;5052678;28;20317;-82
2024/01/01 10:41:57;;;;;;;2.70;1.93;;;;;;;;;;5051467;28;20252;-81
2024/01/01 10:44:24;;;;;;;5.60;2.00;;;;;;;;;;5052249;28;20207;-81
2024/01/01 10:46:53;;;;;;;3.97;1.83;;;;;;;;;;5052155;28;20238;-81
2024/01/01 10:49:23;;;;;;;5.40;1.77;;;;;;;;;;5052516;28;20229;-81
2024/01/01 10:51:55;;;;;;;5.50;1.67;;;;;;;;;;5033461;28;20238;-81
2024/01/01 10:54:37;;;;;;;1.70;1.60;;;;;;;;;;5032874;28;20214;-80
2024/01/01 10:57:11;;;;;;;2.17;1.87;;;;;;;;;;5030207;28;20242;-82
2024/01/01 10:59:41;;;;;;;4.93;2.43;;;;;;;;;;5032924;28;20254;-80
2024/01/01 11:02:10;;;;;;;7.33;2.30;;;;;;;;;;5031996;28;20241;-80
2024/01/01 11:04:37;;;;;;;3.00;1.97;;;;;;;;;;5035290;28;20209;-80
2024/01/01 11:07:04;;;;;;;5.93;2.40;;;;;;;;;;5051752;28;20303;-82
2024/01/01 11:09:33;;;;;;;5.47;2.33;;;;;;;;;;5052172;28;20226;-80
2024/01/01 11:12:02;;;;;;;4.57;1.87;;;;;;;;;;5051872;28;20233;-80
2024/01/01 11:14:31;;;;;;;4.13;1.70;;;;;;;;;;5051829;28;20759;-81
2024/01/01 11:16:58;;;;;;;5.30;2.07;;;;;;;;;;5050856;28;20268;-78
2024/01/01 11:19:38;;;;;;;6.13;2.23;;;;;;;;;;5051577;28;20284;-81
2024/01/01 11:22:30;;;;;;;6.50;2.10;;;;;;;;;;5051689;28;20237;-81
2024/01/01 11:24:59;;;;;;;3.43;2.10;;;;;;;;;;5044489;28;20364;-80
2024/01/01 11:27:26;;;;;;;7.17;2.60;;;;;;;;;;5031621;28;20234;-80
2024/01/01 11:29:55;;;;;;;1.80;1.70;;;;;;;;;;5029437;28;20231;-80
2024/01/01 11:32:23;;;;;;;7.07;2.10;;;;;;;;;;5030278;28;20241;-81
2024/01/01 11:35:04;;;;;;;8.27;2.13;;;;;;;;;;5032497;28;20290;-80
2024/01/01 11:37:31;;;;;;;4.87;2.10;;;;;;;;;;5051684;28;20233;-80
2024/01/01 11:39:58;;;;;;;6.43;2.40;;;;;;;;;;5051250;28;20585;-80
2024/01/01 11:42:25;;;;;;;2.83;1.77;;;;;;;;;;5051148;28;20245;-80
2024/01/01 11:45:05;;;;;;;5.60;2.83;;;;;;;;;;5051419;28;20206;-81
2024/01/01 11:47:34;;;;;;;3.57;1.80;;;;;;;;;;5035889;28;20230;-81
2024/01/01 11:50:01;;;;;;;3.73;1.77;;;;;;;;;;5031601;28;20272;-80
2024/01/01 11:52:28;;;;;;;4.03;2.33;;;;;;;;;;5031484;28;20298;-80
2024/01/01 11:54:55;;;;;;;3.53;1.47;;;;;;;;;;5031284;28;20194;-80
2024/01/01 11:57:22;;;;;;;2.43;1.67;;;;;;;;;;5031100;28;20284;-80
2024/01/01 11:59:50;;;;;;;6.30;2.07;;;;;;;;;;5050411;28;20234;-80
2024/01/01 12:02:17;;;;;;;4.17;2.10;;;;;;;;;;5051027;28;20237;-80
2024/01/01 12:04:46;;;;;;;7.63;2.60;;;;;;;;;;5051182;28;20201;-80
2024/01/01 12:07:26;;;;;;;3.63;2.13;;;;;;;;;;5046421;28;20226;-80
2024/01/01 12:10:02;;;;;;;1.90;1.80;;;;;;;;;;5032882;28;20233;-80
2024/01/01 12:12:29;;;;;;;7.40;2.17;;;;;;;;;;5032354;28;20234;-80
2024/01/01 12:15:06;;;;;;;5.40;1.93;;;;;;;;;;5040348;28;20236;-81
2024/01/01 12:17:33;;;;;;;2.43;1.80;;;;;;;;;;5032263;28;20222;-80
2024/01/01 12:20:01;;;;;;;1.90;1.63;;;;;;;;;;5031257;28;20565;-80
2024/01/01 12:22:28;;;;;;;1.70;1.60;;;;;;;;;;5051026;28;20283;-79
2024/01/01 12:24:58;;;;;;;3.27;2.27;;;;;;;;;;5050977;28;20673;-81
2024/01/01 12:27:25;;;;;;;1.80;1.70;;;;;;;;;;5050610;28;20241;-81
2024/01/01 12:29:56;;;;;;;3.53;2.10;;;;;;;;;;5050947;28;20716;-81
2024/01/01 12:32:23;;;;;;;3.73;2.10;;;;;;;;;;5054481;28;20240;-80
2024/01/01 12:34:51;;;;;;;5.10;2.57;;;;;;;;;;5054942;28;20210;-79
2024/01/01 12:37:19;;;;;;;4.60;1.83;;;;;;;;;;5054702;28;20233;-80
2024/01/01 12:39:48;;;;;;;4.93;2.20;;;;;;;;;;5055034;28;20230;-80
2024/01/01 12:42:15;;;;;;;5.10;1.93;;;;;;;;;;5054754;28;20320;-79
2024/01/01 12:44:42;;;;;;;5.83;1.87;;;;;;;;;;5049586;28;20288;-79
2024/01/01 12:47:10;;;;;;;3.60;1.83;;;;;;;;;;5054548;28;20694;-81
2024/01/01 12:49:37;;;;;;;3.37;2.30;;;;;;;;;;5052054;28;20677;-80
2024/01/01 12:52:04;;;;;;;4.83;2.20;;;;;;;;;;5049065;28;20233;-79
2024/01/01 12:54:33;;;;;;;2.87;1.83;;;;;;;;;;5056627;28;20267;-79
2024/01/01 12:57:00;;;;;;;7.40;2.40;;;;;;;;;;5052282;28;20291;-80
2024/01/01 12:59:27;;;;;;;3.90;1.60;;;;;;;;;;5049637;28;20222;-81
2024/01/01 13:01:54;;;;;;;2.67;1.83;;;;;;;;;;5051333;28;20296;-79
2024/01/01 13:04:21;;;;;;;5.03;2.00;;;;;;;;;;5047800;28;20217;-80
2024/01/01 13:06:49;;;;;;;5.20;2.07;;;;;;;;;;5059063;28;20306;-81
2024/01/01 13:09:16;;;;;;;6.47;2.50;;;;;;;;;;5052426;28;20233;-81
2024/01/01 13:11:45;;;;;;;7.00;2.00;;;;;;;;;;5051836;28;20233;-79
2024/01/01 13:14:12;;;;;;;4.10;2.00;;;;;;;;;;5052672;28;20304;-80
2024/01/01 13:16:39;;;;;;;8.57;2.63;;;;;;;;;;5052142;28;20638;-80
2024/01/01 13:19:06;;;;;;;2.63;2.03;;;;;;;;;;5053595;28;20287;-80
2024/01/01 13:21:34;;;;;;;4.93;2.27;;;;;;;;;;5054013;28;20234;-81
2024/01/01 13:24:01;;;;;;;11.00;3.00;;;;;;;;;;5054175;28;20734;-80
2024/01/01 13:26:28;;;;;;;8.63;2.30;;;;;;;;;;5053996;28;20230;-80
2024/01/01 13:28:57;;;;;;;4.13;2.03;;;;;;;;;;5054172;28;20297;-80
2024/01/01 13:31:24;;;;;;;4.67;2.37;;;;;;;;;;5053961;28;20236;-80
2024/01/01 13:33:51;;;;;;;7.80;2.90;;;;;;;;;;5054389;28;20260;-80
2024/01/01 13:36:18;;;;;;;3.23;1.97;;;;;;;;;;5053572;28;20222;-80
2024/01/01 13:38:45;;;;;;;8.30;2.70;;;;;;;;;;5054025;28;20219;-80
2024/01/01 13:41:12;;;;;;;6.63;2.83;;;;;;;;;;5053632;28;20280;-80
2024/01/01 13:43:39;;;;;;;4.00;1.90;;;;;;;;;;5053403;28;20688;-80
2024/01/01 13:46:07;;;;;;;3.37;2.10;;;;;;;;;;5053282;28;20634;-80
2024/01/01 13:48:34;;;;;;;4.77;1.97;;;;;;;;;;5054168;28;20202;-80
2024/01/01 13:51:01;;;;;;;5.53;2.53;;;;;;;;;;5053341;28;20642;-80
2024/01/01 13:53:28;;;;;;;5.43;2.37;;;;;;;;;;5053988;28;20618;-80
2024/01/01 13:55:55;;;;;;;2.77;2.00;;;;;;;;;;5053098;28;20241;-80
2024/01/01 13:58:22;;;;;;;6.20;2.67;;;;;;;;;;5053746;28;20202;-80
2024/01/01 14:00:50;;;;;;;8.20;2.43;;;;;;;;;;5053257;28;20609;-80
2024/01/01 14:03:18;;;;;;;9.37;2.60;;;;;;;;;;5053705;28;20202;-80
2024/01/01 14:05:46;;;;;;;4.97;2.47;;;;;;;;;;5052964;28;20291;-80
2024/01/01 14:08:13;;;;;;;4.10;2.03;;;;;;;;;;5053792;28;20206;-80
2024/01/01 14:10:41;;;;;;;3.00;2.53;;;;;;;;;;5053116;28;20242;-80
2024/01/01 14:13:08;;;;;;;10.17;2.60;;;;;;;;;;5053735;28;20569;-79
2024/01/01 14:15:38;;;;;;;6.23;2.03;;;;;;;;;;5052926;28;20238;-80
2024/01/01 14:18:05;;;;;;;4.87;2.30;;;;;;;;;;5053439;28;20267;-79
2024/01/01 14:20:35;;;;;;;3.83;1.97;;;;;;;;;;5053018;28;20241;-80
2024/01/01 14:23:02;;;;;;;3.63;1.80;;;;;;;;;;5053153;28;20726;-80
2024/01/01 14:25:29;;;;;;;2.20;2.00;;;;;;;;;;5052753;28;20234;-80
2024/01/01 14:27:56;;;;;;;8.67;2.63;;;;;;;;;;5053095;28;20276;-80
2024/01/01 14:30:23;;;;;;;7.07;2.20;;;;;;;;;;5052570;28;20296;-80
2024/01/01 14:32:53;;;;;;;9.73;2.70;;;;;;;;;;5052863;28;20206;-80
2024/01/01 14:35:20;;;;;;;3.87;2.40;;;;;;;;;;5052472;28;20253;-80
2024/01/01 14:37:48;;;;;;;5.40;1.83;;;;;;;;;;5052917;28;20232;-80
2024/01/01 14:40:17;;;;;;;5.33;2.83;;;;;;;;;;5052253;28;20709;-80
2024/01/01 14:42:44;;;;;;;5.23;2.83;;;;;;;;;;5052666;28;20212;-80